Time;durP1;ratioP1;P1;durP2;ratioP2;P2;SDS_P1;SDS_P2;PMS_P1;PMS_P2;Temp;Humidity;BMP_temperature;BMP_pressure;BME280_temperature;BME280_humidity;BME280_pressure;Samples;Min_cycle;Max_cycle;Signal;HPM_P1;HPM_P2
2022/11/26 00:00:36;;;;;;;2.00;1.20;;;21.30;57.30;;;;;;5117177;27;20028;-67
2022/11/26 00:03:02;;;;;;;1.98;1.10;;;21.30;57.40;;;;;;5124871;27;20031;-67
2022/11/26 00:05:30;;;;;;;1.50;1.10;;;21.30;57.40;;;;;;5127683;27;20024;-66
2022/11/26 00:07:58;;;;;;;1.70;1.13;;;21.30;57.40;;;;;;5120790;27;20095;-67
2022/11/26 00:10:26;;;;;;;1.63;1.05;;;21.30;57.40;;;;;;5122808;27;20422;-67
2022/11/26 00:12:52;;;;;;;2.35;1.25;;;21.30;57.50;;;;;;5120674;27;20518;-66
2022/11/26 00:15:20;;;;;;;2.35;1.35;;;21.30;57.50;;;;;;5120996;27;20032;-67
2022/11/26 00:17:47;;;;;;;1.60;1.00;;;21.30;57.60;;;;;;5117379;27;20386;-67
2022/11/26 00:20:13;;;;;;;2.83;1.20;;;21.20;57.50;;;;;;5121180;27;20057;-67
2022/11/26 00:22:42;;;;;;;1.60;1.10;;;21.20;57.60;;;;;;5118191;27;20038;-67
2022/11/26 00:25:19;;;;;;;;;;;21.20;57.60;;;;;;5127032;27;20049;-66
2022/11/26 00:27:45;;;;;;;2.53;1.13;;;21.20;57.60;;;;;;5121017;27;19946;-67
2022/11/26 00:30:17;;;;;;;1.70;1.00;;;21.20;57.60;;;;;;5122620;27;20031;-66
2022/11/26 00:32:43;;;;;;;2.00;1.00;;;21.20;57.60;;;;;;5119635;27;20058;-66
2022/11/26 00:35:09;;;;;;;1.98;1.20;;;21.20;57.60;;;;;;5119834;28;20169;-67
2022/11/26 00:37:43;;;;;;;2.00;1.13;;;21.20;57.70;;;;;;5123018;27;20135;-67
2022/11/26 00:40:18;;;;;;;1.80;1.20;;;21.20;58.20;;;;;;5117268;27;20031;-67
2022/11/26 00:42:44;;;;;;;1.77;1.15;;;21.10;57.70;;;;;;5118039;28;20079;-66
2022/11/26 00:45:25;;;;;;;2.08;1.20;;;21.10;57.70;;;;;;5118733;28;20474;-66
2022/11/26 00:47:51;;;;;;;1.85;1.20;;;21.10;57.70;;;;;;5119289;28;20058;-67
2022/11/26 00:50:22;;;;;;;1.60;1.00;;;21.10;58.20;;;;;;5115730;28;20080;-67
2022/11/26 00:52:52;;;;;;;1.90;1.15;;;21.10;57.70;;;;;;5117935;28;20096;-66
2022/11/26 00:55:38;;;;;;;;;;;21.10;57.80;;;;;;5123173;28;20478;-66
2022/11/26 00:58:05;;;;;;;2.13;1.25;;;21.10;57.80;;;;;;5118386;28;19907;-66
2022/11/26 01:00:33;;;;;;;1.77;1.13;;;21.10;57.80;;;;;;5114985;28;20123;-67
2022/11/26 01:03:00;;;;;;;1.92;1.20;;;21.10;57.80;;;;;;5119749;28;20042;-68
2022/11/26 01:05:32;;;;;;;1.60;1.10;;;21.10;57.80;;;;;;5121049;28;20023;-66
2022/11/26 01:08:15;;;;;;;1.63;1.08;;;21.00;57.80;;;;;;5116019;28;20024;-66
2022/11/26 01:10:40;;;;;;;1.63;1.10;;;21.10;57.80;;;;;;5117687;28;20019;-66
2022/11/26 01:13:09;;;;;;;1.60;1.00;;;21.10;57.80;;;;;;5118057;27;20030;-67
2022/11/26 01:15:35;;;;;;;1.77;1.13;;;21.00;57.80;;;;;;5121036;27;20072;-67
2022/11/26 01:18:08;;;;;;;2.00;1.15;;;21.00;57.80;;;;;;5121960;27;20038;-67
2022/11/26 01:20:33;;;;;;;1.45;1.00;;;21.00;57.80;;;;;;5123325;27;20023;-66
2022/11/26 01:22:59;;;;;;;1.48;1.10;;;21.00;57.80;;;;;;5122617;27;20034;-66
2022/11/26 01:25:26;;;;;;;1.98;1.25;;;21.00;57.80;;;;;;5122737;27;20375;-67
2022/11/26 01:27:52;;;;;;;1.65;1.10;;;21.00;57.80;;;;;;5126509;27;20027;-66
2022/11/26 01:30:29;;;;;;;2.42;1.40;;;21.00;57.80;;;;;;5124768;27;20011;-66
2022/11/26 01:32:55;;;;;;;1.88;1.20;;;21.00;57.80;;;;;;5121666;27;20378;-67
2022/11/26 01:35:21;;;;;;;1.95;1.10;;;21.00;57.80;;;;;;5126045;27;20035;-66
2022/11/26 01:37:47;;;;;;;1.98;1.08;;;21.00;57.80;;;;;;5121440;27;20065;-67
2022/11/26 01:40:25;;;;;;;1.67;1.00;;;21.00;57.70;;;;;;5122754;27;20023;-66
2022/11/26 01:43:15;;;;;;;2.17;1.20;;;21.00;57.80;;;;;;5125202;27;20023;-67
2022/11/26 01:45:41;;;;;;;1.75;1.02;;;21.00;57.80;;;;;;5124592;27;20047;-66
2022/11/26 01:48:23;;;;;;;1.80;1.10;;;21.00;57.80;;;;;;5122246;27;20082;-67
2022/11/26 01:50:55;;;;;;;1.63;1.10;;;20.90;57.70;;;;;;5121268;27;20023;-67
2022/11/26 01:53:29;;;;;;;1.55;0.95;;;21.00;57.80;;;;;;5121611;27;20466;-66
2022/11/26 01:56:18;;;;;;;1.92;1.20;;;20.90;58.20;;;;;;5119752;27;20059;-67
2022/11/26 01:58:49;;;;;;;2.38;1.20;;;20.90;57.70;;;;;;5125720;27;20038;-66
2022/11/26 02:01:15;;;;;;;1.80;1.10;;;20.90;57.70;;;;;;5120399;27;20024;-67
2022/11/26 02:04:07;;;;;;;1.35;0.90;;;20.90;57.70;;;;;;5124316;27;20081;-67
2022/11/26 02:06:33;;;;;;;1.23;0.95;;;20.90;57.70;;;;;;5116485;27;20031;-68
2022/11/26 02:09:02;;;;;;;2.05;1.00;;;20.90;57.70;;;;;;5124606;27;20076;-67
2022/11/26 02:11:28;;;;;;;2.42;1.13;;;20.90;57.70;;;;;;5118623;27;20026;-67
2022/11/26 02:14:19;;;;;;;1.70;1.08;;;20.80;57.70;;;;;;5122491;27;20038;-67
2022/11/26 02:16:45;;;;;;;2.00;1.23;;;20.90;57.70;;;;;;5121423;27;20065;-66
2022/11/26 02:19:26;;;;;;;2.00;1.10;;;20.80;57.70;;;;;;5122232;27;20087;-67
2022/11/26 02:21:59;;;;;;;1.77;1.17;;;20.80;57.70;;;;;;5129856;27;20035;-66
2022/11/26 02:24:43;;;;;;;1.50;1.10;;;20.80;57.70;;;;;;5123949;27;20034;-67
2022/11/26 02:27:27;;;;;;;1.70;1.00;;;20.80;57.70;;;;;;5122343;27;20023;-67
2022/11/26 02:30:01;;;;;;;1.83;1.10;;;20.80;57.70;;;;;;5122959;27;20027;-67
2022/11/26 02:32:32;;;;;;;0.95;0.80;;;20.80;57.70;;;;;;5119662;27;20047;-68
2022/11/26 02:35:10;;;;;;;1.65;1.00;;;20.80;57.70;;;;;;5120890;27;20019;-67
2022/11/26 02:37:50;;;;;;;1.52;1.00;;;20.80;57.70;;;;;;5117607;27;20023;-67
2022/11/26 02:40:17;;;;;;;1.75;1.00;;;20.80;57.80;;;;;;5121781;27;20493;-67
2022/11/26 02:42:43;;;;;;;1.70;1.10;;;20.70;57.70;;;;;;5118239;27;20042;-67
2022/11/26 02:45:12;;;;;;;1.33;1.02;;;20.70;57.70;;;;;;5119473;27;20023;-67
2022/11/26 02:47:41;;;;;;;1.80;1.10;;;20.70;57.70;;;;;;5125240;27;20035;-66
2022/11/26 02:50:14;;;;;;;1.40;1.00;;;20.70;57.80;;;;;;5125306;27;20110;-67
2022/11/26 02:52:41;;;;;;;1.92;1.20;;;20.70;57.80;;;;;;5121402;27;20482;-67
2022/11/26 02:55:10;;;;;;;2.13;1.17;;;20.70;58.30;;;;;;5116392;27;20034;-67
2022/11/26 02:57:44;;;;;;;1.75;1.10;;;20.70;58.30;;;;;;5119979;27;20030;-66
2022/11/26 03:00:10;;;;;;;1.75;1.20;;;20.70;57.80;;;;;;5123564;27;20024;-67
2022/11/26 03:02:44;;;;;;;1.77;1.15;;;20.70;58.30;;;;;;5122662;27;20103;-67
2022/11/26 03:05:13;;;;;;;1.60;1.00;;;20.70;57.80;;;;;;5119640;27;20068;-67
2022/11/26 03:07:39;;;;;;;1.73;1.00;;;20.70;57.80;;;;;;5119232;27;20425;-66
2022/11/26 03:10:06;;;;;;;1.52;1.00;;;20.70;57.80;;;;;;5122176;27;20023;-66
2022/11/26 03:12:31;;;;;;;1.83;1.10;;;20.60;57.80;;;;;;5122703;27;20063;-67
2022/11/26 03:14:57;;;;;;;1.73;1.02;;;20.60;57.80;;;;;;5124052;27;20107;-66
2022/11/26 03:17:23;;;;;;;1.20;1.00;;;20.60;57.80;;;;;;5125243;27;20027;-66
2022/11/26 03:19:49;;;;;;;1.98;1.10;;;20.60;57.80;;;;;;5118294;27;20031;-67
2022/11/26 03:22:15;;;;;;;1.88;1.20;;;20.60;57.80;;;;;;5125397;27;20118;-66
2022/11/26 03:24:42;;;;;;;1.50;1.00;;;20.60;57.80;;;;;;5123332;27;20644;-66
2022/11/26 03:27:07;;;;;;;1.67;1.10;;;20.60;57.80;;;;;;5118893;27;20027;-67
2022/11/26 03:29:33;;;;;;;1.48;1.10;;;20.60;57.80;;;;;;5120730;27;20027;-66
2022/11/26 03:31:59;;;;;;;2.17;1.10;;;20.60;57.80;;;;;;5119822;27;20478;-67
2022/11/26 03:34:24;;;;;;;1.80;1.20;;;20.60;57.80;;;;;;5125511;27;20028;-66
2022/11/26 03:36:50;;;;;;;1.60;1.10;;;20.60;57.80;;;;;;5123898;27;20075;-66
2022/11/26 03:39:16;;;;;;;1.88;1.20;;;20.60;57.80;;;;;;5120306;27;20042;-66
2022/11/26 03:41:43;;;;;;;2.00;1.20;;;20.60;57.80;;;;;;5121540;27;20031;-67
2022/11/26 03:44:12;;;;;;;1.58;1.00;;;20.60;57.80;;;;;;5122145;27;20024;-66
2022/11/26 03:46:38;;;;;;;1.70;1.00;;;20.60;57.80;;;;;;5123723;27;20016;-67
2022/11/26 03:49:04;;;;;;;1.70;1.00;;;20.60;57.80;;;;;;5122904;27;20490;-67
2022/11/26 03:51:30;;;;;;;1.60;1.10;;;20.50;57.80;;;;;;5117969;27;20475;-66
2022/11/26 03:53:55;;;;;;;1.33;0.95;;;20.50;57.80;;;;;;5124074;27;20027;-66
2022/11/26 03:56:21;;;;;;;1.95;1.20;;;20.50;57.80;;;;;;5119823;27;20031;-66
2022/11/26 03:58:47;;;;;;;1.52;1.00;;;20.60;57.90;;;;;;5123639;27;20367;-66
2022/11/26 04:01:12;;;;;;;1.17;0.98;;;20.60;58.40;;;;;;5124367;27;20019;-66
2022/11/26 04:03:39;;;;;;;1.20;1.02;;;20.60;57.90;;;;;;5121827;27;20443;-66
2022/11/26 04:06:05;;;;;;;1.30;1.00;;;20.50;57.90;;;;;;5122800;27;20016;-66
2022/11/26 04:08:30;;;;;;;1.60;1.10;;;20.50;57.80;;;;;;5113663;27;20035;-66
2022/11/26 04:10:56;;;;;;;1.38;1.00;;;20.50;57.80;;;;;;5119614;27;20020;-67
2022/11/26 04:13:21;;;;;;;2.17;1.00;;;20.50;57.80;;;;;;5118664;27;20114;-65
2022/11/26 04:15:47;;;;;;;1.63;0.98;;;20.50;57.80;;;;;;5116252;27;20032;-66
2022/11/26 04:18:13;;;;;;;1.95;1.05;;;20.50;57.80;;;;;;5126665;27;20035;-67
2022/11/26 04:20:39;;;;;;;1.65;1.00;;;20.50;57.90;;;;;;5122566;27;20038;-66
2022/11/26 04:23:05;;;;;;;1.48;0.98;;;20.50;57.80;;;;;;5123568;27;20436;-67
2022/11/26 04:25:30;;;;;;;1.80;1.15;;;20.50;57.80;;;;;;5122842;27;20492;-65
2022/11/26 04:27:56;;;;;;;1.45;1.00;;;20.50;57.90;;;;;;5116664;27;20064;-66
2022/11/26 04:30:22;;;;;;;1.50;1.00;;;20.50;57.80;;;;;;5122988;27;20079;-66
2022/11/26 04:32:48;;;;;;;1.40;1.00;;;20.50;57.80;;;;;;5120342;27;20038;-66
2022/11/26 04:35:13;;;;;;;1.30;1.00;;;20.50;57.90;;;;;;5117942;28;20033;-67
2022/11/26 04:37:39;;;;;;;1.45;0.90;;;20.50;57.90;;;;;;5120712;27;20479;-67
2022/11/26 04:40:05;;;;;;;1.05;0.80;;;20.50;58.00;;;;;;5117032;27;20529;-67
2022/11/26 04:42:32;;;;;;;1.85;1.20;;;20.40;57.90;;;;;;5115593;27;20065;-65
2022/11/26 04:44:57;;;;;;;1.60;1.10;;;20.50;57.90;;;;;;5119977;28;20477;-66
2022/11/26 04:47:23;;;;;;;1.73;1.20;;;20.50;58.00;;;;;;5117783;27;20019;-66
2022/11/26 04:49:48;;;;;;;1.65;1.00;;;20.50;58.00;;;;;;5119385;28;20031;-66
2022/11/26 04:52:14;;;;;;;1.35;1.08;;;20.50;58.00;;;;;;5121394;28;20012;-66
2022/11/26 04:54:40;;;;;;;1.52;1.05;;;20.50;58.00;;;;;;5127170;28;20095;-66
2022/11/26 04:57:05;;;;;;;0.98;0.80;;;20.40;57.90;;;;;;5121979;28;20027;-66
2022/11/26 04:59:31;;;;;;;1.08;0.90;;;20.40;58.00;;;;;;5122669;28;20035;-66
2022/11/26 05:01:58;;;;;;;1.33;1.00;;;20.40;58.00;;;;;;5116611;28;20035;-66
2022/11/26 05:04:25;;;;;;;1.33;0.90;;;20.40;58.00;;;;;;5117249;28;20026;-66
2022/11/26 05:06:50;;;;;;;1.70;1.08;;;20.40;58.00;;;;;;5114659;28;20020;-66
2022/11/26 05:09:16;;;;;;;1.40;0.90;;;20.40;58.10;;;;;;5128160;28;20031;-66
2022/11/26 05:11:41;;;;;;;1.17;0.98;;;20.40;58.10;;;;;;5128663;28;20404;-66
2022/11/26 05:14:07;;;;;;;1.50;1.10;;;20.40;58.10;;;;;;5123536;28;20027;-66
2022/11/26 05:16:33;;;;;;;1.80;0.95;;;20.40;58.10;;;;;;5117379;28;20054;-66
2022/11/26 05:18:58;;;;;;;1.63;0.90;;;20.30;58.10;;;;;;5120016;28;20023;-66
2022/11/26 05:21:24;;;;;;;1.00;0.90;;;20.40;58.10;;;;;;5118669;28;20469;-66
2022/11/26 05:23:49;;;;;;;1.30;0.90;;;20.30;58.10;;;;;;5122095;28;20041;-66
2022/11/26 05:26:16;;;;;;;1.35;0.90;;;20.40;58.20;;;;;;5122864;28;20032;-66
2022/11/26 05:28:41;;;;;;;1.25;0.88;;;20.30;58.10;;;;;;5116932;28;20080;-66
2022/11/26 05:31:07;;;;;;;1.00;0.90;;;20.30;58.10;;;;;;5120867;28;20015;-66
2022/11/26 05:33:33;;;;;;;1.30;0.95;;;20.30;58.10;;;;;;5121537;28;20110;-66
2022/11/26 05:35:59;;;;;;;1.30;0.90;;;20.30;58.20;;;;;;5118921;28;20038;-65
2022/11/26 05:38:25;;;;;;;1.23;0.90;;;20.30;58.20;;;;;;5119356;28;20039;-66
2022/11/26 05:40:50;;;;;;;1.80;1.05;;;20.30;58.20;;;;;;5116599;28;20031;-66
2022/11/26 05:43:17;;;;;;;1.70;1.00;;;20.30;58.20;;;;;;5126763;28;20070;-66
2022/11/26 05:45:42;;;;;;;1.45;0.85;;;20.30;58.20;;;;;;5123372;28;20027;-66
2022/11/26 05:48:08;;;;;;;1.42;1.08;;;20.30;58.20;;;;;;5118077;28;20027;-66
2022/11/26 05:50:34;;;;;;;1.30;0.90;;;20.30;58.20;;;;;;5123401;28;20486;-66
2022/11/26 05:52:59;;;;;;;1.17;0.90;;;20.30;58.20;;;;;;5118361;28;20439;-66
2022/11/26 05:55:25;;;;;;;1.30;1.00;;;20.30;58.20;;;;;;5116347;28;20076;-66
2022/11/26 05:57:51;;;;;;;1.08;0.77;;;20.30;58.80;;;;;;5118556;28;20019;-66
2022/11/26 06:00:17;;;;;;;1.50;0.85;;;20.30;58.30;;;;;;5126350;27;20039;-66
2022/11/26 06:02:42;;;;;;;1.40;0.98;;;20.30;58.30;;;;;;5122797;27;20126;-66
2022/11/26 06:05:08;;;;;;;1.48;0.90;;;20.30;58.30;;;;;;5123876;27;20031;-66
2022/11/26 06:07:34;;;;;;;1.48;0.82;;;20.30;58.30;;;;;;5128700;27;20034;-66
2022/11/26 06:09:59;;;;;;;1.48;0.98;;;20.30;58.30;;;;;;5126522;27;20387;-66
2022/11/26 06:12:25;;;;;;;1.80;1.00;;;20.30;58.40;;;;;;5124922;27;20482;-68
2022/11/26 06:14:51;;;;;;;1.17;0.90;;;20.20;58.30;;;;;;5122810;27;20031;-67
2022/11/26 06:17:16;;;;;;;1.75;1.00;;;20.20;58.30;;;;;;5120830;27;20814;-66
2022/11/26 06:19:42;;;;;;;1.15;0.90;;;20.20;58.30;;;;;;5122200;27;20032;-67
2022/11/26 06:22:08;;;;;;;1.52;1.00;;;20.20;58.30;;;;;;5120063;27;20508;-66
2022/11/26 06:24:34;;;;;;;1.88;1.10;;;20.20;58.40;;;;;;5123769;27;20070;-66
2022/11/26 06:26:59;;;;;;;1.33;1.00;;;20.20;58.40;;;;;;5127089;27;20058;-67
2022/11/26 06:29:25;;;;;;;1.42;0.90;;;20.20;58.40;;;;;;5120991;27;20521;-66
2022/11/26 06:31:50;;;;;;;1.48;0.93;;;20.20;58.40;;;;;;5125054;27;20067;-67
2022/11/26 06:34:16;;;;;;;1.55;1.05;;;20.20;59.00;;;;;;5123689;27;20031;-67
2022/11/26 06:36:42;;;;;;;1.27;0.82;;;20.20;58.50;;;;;;5120950;27;20031;-66
2022/11/26 06:39:11;;;;;;;1.55;0.95;;;20.20;58.50;;;;;;5122461;27;20487;-67
2022/11/26 06:41:36;;;;;;;1.35;0.90;;;20.20;58.40;;;;;;5121407;27;20035;-67
2022/11/26 06:44:03;;;;;;;1.00;0.90;;;20.20;58.50;;;;;;5122855;27;20386;-67
2022/11/26 06:46:29;;;;;;;1.45;1.00;;;20.20;58.50;;;;;;5120728;27;20020;-67
2022/11/26 06:48:59;;;;;;;1.45;0.98;;;20.10;58.40;;;;;;5123382;27;20020;-67
2022/11/26 06:51:26;;;;;;;1.40;0.90;;;20.20;58.50;;;;;;5126754;27;20024;-68
2022/11/26 06:53:53;;;;;;;1.17;0.90;;;20.10;58.50;;;;;;5122027;27;20031;-67
2022/11/26 06:56:18;;;;;;;2.30;1.15;;;20.20;58.50;;;;;;5124661;27;20535;-67
2022/11/26 06:58:48;;;;;;;0.90;0.80;;;20.10;58.50;;;;;;5120239;27;20031;-67
2022/11/26 07:01:19;;;;;;;0.85;0.80;;;20.10;58.50;;;;;;5120879;27;20050;-67
2022/11/26 07:03:45;;;;;;;1.45;0.95;;;20.10;58.50;;;;;;5120246;27;20395;-66
2022/11/26 07:06:31;;;;;;;1.45;0.98;;;20.20;58.50;;;;;;5121848;27;20381;-66
2022/11/26 07:09:00;;;;;;;1.40;0.95;;;20.10;58.50;;;;;;5127415;27;20126;-67
2022/11/26 07:11:27;;;;;;;1.70;1.00;;;20.20;58.60;;;;;;5127112;27;20121;-67
2022/11/26 07:13:53;;;;;;;1.83;1.10;;;20.10;58.50;;;;;;5121017;27;20027;-68
2022/11/26 07:16:19;;;;;;;1.30;0.90;;;20.10;58.50;;;;;;5120733;27;20035;-66
2022/11/26 07:18:52;;;;;;;2.05;1.00;;;20.10;58.50;;;;;;5121524;27;20099;-67
2022/11/26 07:21:19;;;;;;;1.17;0.80;;;20.10;58.50;;;;;;5123273;27;20475;-67
2022/11/26 07:23:44;;;;;;;1.63;1.02;;;20.10;58.50;;;;;;5123043;27;20034;-67
2022/11/26 07:26:12;;;;;;;1.50;1.00;;;20.10;58.50;;;;;;5123388;27;20016;-66
2022/11/26 07:28:38;;;;;;;1.48;1.00;;;20.10;58.50;;;;;;5118715;27;20475;-67
2022/11/26 07:31:09;;;;;;;1.35;0.98;;;20.10;58.50;;;;;;5121054;27;20075;-67
2022/11/26 07:33:35;;;;;;;1.42;1.10;;;20.10;58.50;;;;;;5124856;27;20032;-68
2022/11/26 07:36:02;;;;;;;1.38;1.00;;;20.10;58.60;;;;;;5122363;27;20034;-67
2022/11/26 07:38:29;;;;;;;1.40;1.00;;;20.10;58.60;;;;;;5116953;27;20153;-67
2022/11/26 07:41:00;;;;;;;1.60;1.10;;;20.10;58.60;;;;;;5119620;27;20031;-67
2022/11/26 07:43:26;;;;;;;1.30;1.00;;;20.10;58.50;;;;;;5119400;27;20089;-66
2022/11/26 07:45:52;;;;;;;1.63;1.00;;;20.10;58.60;;;;;;5121089;27;20032;-67
2022/11/26 07:48:17;;;;;;;1.35;0.95;;;20.10;58.60;;;;;;5116957;27;20023;-68
2022/11/26 07:50:44;;;;;;;1.70;1.00;;;20.10;58.60;;;;;;5122800;27;20378;-67
2022/11/26 07:53:10;;;;;;;1.60;1.08;;;20.10;58.70;;;;;;5118090;27;20111;-67
2022/11/26 07:55:37;;;;;;;1.75;1.10;;;20.10;58.60;;;;;;5120676;27;20480;-66
2022/11/26 07:58:03;;;;;;;1.35;1.10;;;20.10;58.60;;;;;;5122776;27;20111;-66
2022/11/26 08:00:29;;;;;;;1.95;1.10;;;20.10;58.60;;;;;;5120901;27;20529;-67
2022/11/26 08:02:54;;;;;;;1.55;1.00;;;20.10;58.60;;;;;;5118822;27;20023;-67
2022/11/26 08:05:20;;;;;;;1.13;0.90;;;20.10;58.70;;;;;;5122052;27;20027;-66
2022/11/26 08:07:45;;;;;;;1.40;1.00;;;20.10;58.70;;;;;;5123817;27;20098;-67
2022/11/26 08:10:11;;;;;;;1.48;1.10;;;20.00;58.60;;;;;;5119798;27;20038;-67
2022/11/26 08:12:37;;;;;;;1.48;1.00;;;20.00;58.60;;;;;;5118575;27;20020;-67
2022/11/26 08:15:04;;;;;;;1.38;1.00;;;20.10;58.70;;;;;;5124250;27;20896;-67
2022/11/26 08:17:29;;;;;;;1.70;1.08;;;20.00;58.60;;;;;;5129311;27;20492;-67
2022/11/26 08:19:55;;;;;;;2.00;1.00;;;20.00;58.60;;;;;;5122197;27;20019;-66
2022/11/26 08:22:21;;;;;;;1.65;0.93;;;20.00;58.60;;;;;;5121534;27;20057;-67
2022/11/26 08:24:48;;;;;;;1.73;1.00;;;20.00;58.70;;;;;;5128426;27;20108;-67
2022/11/26 08:27:13;;;;;;;1.70;1.10;;;20.00;58.70;;;;;;5121023;27;20027;-68
2022/11/26 08:29:39;;;;;;;1.67;0.95;;;20.00;58.70;;;;;;5114190;27;20030;-67
2022/11/26 08:32:05;;;;;;;2.13;1.30;;;20.00;58.70;;;;;;5119984;27;20023;-67
2022/11/26 08:34:31;;;;;;;1.23;0.90;;;20.00;58.70;;;;;;5119585;27;20024;-67
2022/11/26 08:36:57;;;;;;;1.27;0.90;;;20.00;58.80;;;;;;5119546;27;20581;-67
2022/11/26 08:39:23;;;;;;;1.30;0.93;;;20.00;58.80;;;;;;5124276;27;20058;-66
2022/11/26 08:41:48;;;;;;;1.85;1.30;;;20.00;58.80;;;;;;5119538;27;20088;-67
2022/11/26 08:44:14;;;;;;;2.05;1.27;;;20.00;58.80;;;;;;5118619;28;20020;-67
2022/11/26 08:46:40;;;;;;;2.25;1.20;;;20.00;58.80;;;;;;5118123;28;20530;-66
2022/11/26 08:49:09;;;;;;;1.95;1.42;;;20.00;58.90;;;;;;5118092;28;20019;-67
2022/11/26 08:51:35;;;;;;;1.67;1.20;;;20.00;58.90;;;;;;5114560;28;20067;-66
2022/11/26 08:54:01;;;;;;;1.10;0.90;;;20.00;58.90;;;;;;5120725;28;20055;-67
2022/11/26 08:56:26;;;;;;;1.58;1.10;;;20.00;58.90;;;;;;5123708;28;20493;-66
2022/11/26 08:58:52;;;;;;;1.58;1.02;;;20.00;58.90;;;;;;5119071;28;20031;-66
2022/11/26 09:01:20;;;;;;;1.80;1.20;;;20.00;59.40;;;;;;5121962;28;20130;-67
2022/11/26 09:03:48;;;;;;;1.98;1.10;;;20.00;59.00;;;;;;5117871;28;20028;-68
2022/11/26 09:06:14;;;;;;;1.58;1.00;;;20.00;59.00;;;;;;5117829;28;20034;-67
2022/11/26 09:11:25;;;;;;;2.05;1.30;;;20.00;59.00;;;;;;5118438;28;20062;-67
2022/11/26 09:13:52;;;;;;;1.58;1.10;;;20.00;59.00;;;;;;5122390;27;20036;-67
2022/11/26 09:16:18;;;;;;;2.22;1.05;;;20.00;59.00;;;;;;5118755;28;20532;-67
2022/11/26 09:18:43;;;;;;;1.60;1.08;;;20.00;59.10;;;;;;5116642;28;20027;-67
2022/11/26 09:21:09;;;;;;;2.10;1.30;;;20.00;59.10;;;;;;5116145;28;20363;-66
2022/11/26 09:23:35;;;;;;;2.20;1.38;;;19.90;59.10;;;;;;5120310;28;20076;-67
2022/11/26 09:26:00;;;;;;;1.73;1.20;;;20.00;59.20;;;;;;5123167;28;20024;-66
2022/11/26 09:28:27;;;;;;;2.38;1.30;;;19.90;59.60;;;;;;5120248;28;20035;-67
2022/11/26 09:31:00;;;;;;;1.95;1.38;;;19.90;59.10;;;;;;5119450;28;20380;-67
2022/11/26 09:33:27;;;;;;;2.15;1.23;;;19.90;59.10;;;;;;5120212;27;20015;-66
2022/11/26 09:35:52;;;;;;;1.80;1.20;;;19.90;59.60;;;;;;5124537;27;20164;-66
2022/11/26 09:38:18;;;;;;;2.83;1.40;;;20.00;59.20;;;;;;5126124;27;20992;-66
2022/11/26 09:40:59;;;;;;;2.72;1.25;;;20.00;59.20;;;;;;5124191;27;20106;-67
2022/11/26 09:43:34;;;;;;;1.88;1.20;;;19.90;59.20;;;;;;5121894;27;20038;-66
2022/11/26 09:46:00;;;;;;;1.70;1.20;;;20.00;59.20;;;;;;5125653;27;20032;-67
2022/11/26 09:48:29;;;;;;;1.75;1.17;;;19.90;59.20;;;;;;5128628;27;20148;-67
2022/11/26 09:51:03;;;;;;;2.03;1.25;;;20.00;59.30;;;;;;5128496;27;20885;-67
2022/11/26 09:53:46;;;;;;;1.50;1.00;;;19.90;59.30;;;;;;5118943;27;20371;-67
2022/11/26 09:56:19;;;;;;;2.30;1.30;;;19.90;59.30;;;;;;5119854;27;20163;-66
2022/11/26 09:59:00;;;;;;;2.17;1.27;;;19.90;59.30;;;;;;5126583;27;20046;-67
2022/11/26 10:01:27;;;;;;;2.40;1.40;;;19.90;59.30;;;;;;5119926;27;20019;-65
2022/11/26 10:03:53;;;;;;;2.00;1.30;;;19.90;59.30;;;;;;5118693;27;20490;-67
2022/11/26 10:06:43;;;;;;;1.92;1.30;;;19.90;59.30;;;;;;5120108;27;20071;-66
2022/11/26 10:09:32;;;;;;;2.03;1.30;;;19.90;59.30;;;;;;5124194;27;20494;-66
2022/11/26 10:12:12;;;;;;;1.88;1.20;;;19.90;59.40;;;;;;5120503;27;20080;-66
2022/11/26 10:15:11;;;;;;;1.77;1.20;;;19.90;59.40;;;;;;5128121;27;20028;-66
2022/11/26 10:17:56;;;;;;;1.50;1.10;;;19.90;59.40;;;;;;5130077;27;20031;-67
2022/11/26 10:20:31;;;;;;;2.95;1.10;;;19.90;59.50;;;;;;5124645;27;20098;-66
2022/11/26 10:23:10;;;;;;;1.77;1.10;;;19.90;59.50;;;;;;5118464;27;20031;-66
2022/11/26 10:26:19;;;;;;;2.00;1.13;;;19.90;59.50;;;;;;5122535;27;20605;-65
2022/11/26 10:28:47;;;;;;;2.00;1.20;;;19.90;59.60;;;;;;5122529;27;20035;-66
2022/11/26 10:31:25;;;;;;;2.17;1.42;;;19.90;59.60;;;;;;5123793;27;20381;-67
2022/11/26 10:33:55;;;;;;;3.45;1.38;;;19.90;59.60;;;;;;5120936;27;20079;-66
2022/11/26 10:36:25;;;;;;;1.35;1.00;;;19.90;60.10;;;;;;5122595;27;20042;-67
2022/11/26 10:38:52;;;;;;;1.83;1.10;;;19.90;59.60;;;;;;5124176;27;20032;-66
2022/11/26 10:41:19;;;;;;;2.15;1.20;;;19.90;59.60;;;;;;5121826;27;20024;-67
2022/11/26 10:43:45;;;;;;;2.13;1.20;;;19.90;59.70;;;;;;5122159;27;20114;-66
2022/11/26 10:46:33;;;;;;;2.03;1.25;;;19.90;59.70;;;;;;5121922;27;20153;-67
2022/11/26 10:49:28;;;;;;;1.90;1.25;;;19.90;59.70;;;;;;5120740;27;20027;-66
2022/11/26 10:51:57;;;;;;;1.65;1.20;;;19.90;59.70;;;;;;5120840;27;20581;-66
2022/11/26 10:54:35;;;;;;;2.10;1.20;;;19.90;59.60;;;;;;5122162;27;20108;-68
2022/11/26 10:57:14;;;;;;;1.85;1.27;;;19.90;59.70;;;;;;5123539;27;20095;-67
2022/11/26 10:59:44;;;;;;;1.75;1.17;;;19.90;59.70;;;;;;5126271;27;20046;-67
2022/11/26 11:02:19;;;;;;;3.33;1.52;;;19.90;59.70;;;;;;5124781;27;20084;-67
2022/11/26 11:04:48;;;;;;;2.50;1.23;;;19.90;59.70;;;;;;5118255;27;20035;-67
2022/11/26 11:07:29;;;;;;;1.83;1.15;;;19.90;59.80;;;;;;5122710;27;20477;-65
2022/11/26 11:10:04;;;;;;;2.15;1.23;;;19.90;59.80;;;;;;5121096;27;20046;-66
2022/11/26 11:12:30;;;;;;;2.03;1.30;;;19.90;59.80;;;;;;5119335;27;20027;-66
2022/11/26 11:15:16;;;;;;;2.15;1.25;;;19.90;59.80;;;;;;5122204;27;20031;-68
2022/11/26 11:17:44;;;;;;;1.88;1.30;;;19.90;59.80;;;;;;5120756;27;20023;-66
2022/11/26 11:20:15;;;;;;;1.92;1.30;;;19.90;59.70;;;;;;5120708;27;20105;-68
2022/11/26 11:22:45;;;;;;;3.22;1.20;;;19.90;59.80;;;;;;5124594;27;20042;-66
2022/11/26 11:25:24;;;;;;;2.33;1.48;;;19.90;59.80;;;;;;5124330;27;20438;-66
2022/11/26 11:27:50;;;;;;;1.88;1.30;;;19.90;59.80;;;;;;5121482;27;20055;-67
2022/11/26 11:30:27;;;;;;;1.80;1.13;;;19.90;59.80;;;;;;5119082;27;20031;-66
2022/11/26 11:33:08;;;;;;;2.15;1.20;;;19.90;59.80;;;;;;5123633;27;20184;-66
2022/11/26 11:35:34;;;;;;;4.32;1.80;;;19.90;59.90;;;;;;5121030;27;20019;-67
2022/11/26 11:38:00;;;;;;;2.55;1.30;;;19.90;59.80;;;;;;5121979;27;20045;-66
2022/11/26 11:40:29;;;;;;;2.55;1.52;;;19.90;59.90;;;;;;5127834;27;20023;-66
2022/11/26 11:43:06;;;;;;;2.80;1.30;;;19.90;60.00;;;;;;5127454;27;20035;-67
2022/11/26 11:45:40;;;;;;;2.00;1.38;;;19.80;59.90;;;;;;5120623;27;20028;-67
2022/11/26 11:48:36;;;;;;;4.05;1.90;;;19.90;60.00;;;;;;5125191;27;20052;-66
2022/11/26 11:51:16;;;;;;;2.58;1.40;;;19.90;60.00;;;;;;5115804;27;20035;-67
2022/11/26 11:54:03;;;;;;;2.55;1.33;;;19.90;60.10;;;;;;5117840;27;20428;-67
2022/11/26 11:56:45;;;;;;;2.50;1.33;;;19.90;60.10;;;;;;5128056;27;20221;-67
2022/11/26 11:59:35;;;;;;;3.25;1.60;;;19.80;60.00;;;;;;5118542;27;20119;-66
2022/11/26 12:02:33;;;;;;;3.22;1.50;;;19.80;60.00;;;;;;5116534;27;20099;-66
2022/11/26 12:05:04;;;;;;;3.40;1.67;;;19.90;60.10;;;;;;5117834;27;20475;-66
2022/11/26 12:07:36;;;;;;;4.00;1.77;;;19.90;60.20;;;;;;5122162;27;20552;-66
2022/11/26 12:10:24;;;;;;;3.45;1.77;;;19.90;60.20;;;;;;5120188;27;20080;-67
2022/11/26 12:12:57;;;;;;;3.10;1.67;;;19.90;60.30;;;;;;5121180;27;20552;-67
2022/11/26 12:15:41;;;;;;;3.08;1.83;;;19.90;60.20;;;;;;5138391;27;20076;-66
2022/11/26 12:18:34;;;;;;;3.65;1.80;;;19.80;60.20;;;;;;5122644;27;20030;-66
2022/11/26 12:21:05;;;;;;;3.42;1.77;;;19.80;60.30;;;;;;5121400;27;20039;-66
2022/11/26 12:23:43;;;;;;;2.60;1.55;;;19.90;60.30;;;;;;5119608;27;20035;-66
2022/11/26 12:26:28;;;;;;;3.50;1.70;;;19.80;60.30;;;;;;5119599;27;20055;-67
2022/11/26 12:28:56;;;;;;;3.78;1.70;;;19.90;60.40;;;;;;5121097;27;20023;-67
2022/11/26 12:31:34;;;;;;;3.47;1.70;;;19.80;60.30;;;;;;5119443;27;20546;-69
2022/11/26 12:34:47;;;;;;;5.72;2.13;;;19.90;60.30;;;;;;5119539;27;20027;-68
2022/11/26 12:37:26;;;;;;;3.42;1.60;;;20.50;59.60;;;;;;5116385;27;20039;-68
2022/11/26 12:40:00;;;;;;;2.70;1.52;;;20.90;58.50;;;;;;5120502;27;20028;-67
2022/11/26 12:42:41;;;;;;;2.22;1.30;;;20.90;57.90;;;;;;5119430;27;20038;-67
2022/11/26 12:45:35;;;;;;;5.25;1.65;;;20.80;58.10;;;;;;5115658;27;20461;-68
2022/11/26 12:48:09;;;;;;;3.13;1.70;;;20.90;58.00;;;;;;5121586;28;20568;-67
2022/11/26 12:50:43;;;;;;;2.72;1.50;;;20.80;58.00;;;;;;5121470;28;20082;-67
2022/11/26 12:53:26;;;;;;;3.10;1.50;;;20.80;58.20;;;;;;5120920;28;20028;-67
2022/11/26 12:56:08;;;;;;;4.20;1.67;;;20.70;58.40;;;;;;5123464;28;20038;-68
2022/11/26 12:58:42;;;;;;;4.05;1.67;;;20.70;58.60;;;;;;5118181;28;20107;-68
2022/11/26 13:01:10;;;;;;;3.40;1.60;;;20.70;58.70;;;;;;5120156;28;20027;-67
2022/11/26 13:03:36;;;;;;;3.10;1.50;;;20.70;58.90;;;;;;5126230;28;20034;-68
2022/11/26 13:06:13;;;;;;;3.30;1.50;;;20.70;59.20;;;;;;5119773;28;20019;-66